sensor_id;sensor_type;location;lat;lon;timestamp;P1;durP1;ratioP1;P2;durP2;ratioP2
6987;SDS011;3534;49.960;8.018;2023-04-30T00:00:27;14.50;;;11.00;;
6987;SDS011;3534;49.960;8.018;2023-04-30T00:02:55;12.50;;;10.20;;
6987;SDS011;3534;49.960;8.018;2023-04-30T00:05:21;11.97;;;9.20;;
6987;SDS011;3534;49.960;8.018;2023-04-30T00:07:48;10.50;;;9.37;;
6987;SDS011;3534;49.960;8.018;2023-04-30T00:10:15;11.77;;;9.17;;
6987;SDS011;3534;49.960;8.018;2023-04-30T00:12:41;18.60;;;9.97;;
6987;SDS011;3534;49.960;8.018;2023-04-30T00:15:08;12.40;;;9.40;;
6987;SDS011;3534;49.960;8.018;2023-04-30T00:17:35;10.10;;;8.90;;
6987;SDS011;3534;49.960;8.018;2023-04-30T00:20:04;13.23;;;8.90;;
6987;SDS011;3534;49.960;8.018;2023-04-30T00:22:32;12.10;;;9.50;;
6987;SDS011;3534;49.960;8.018;2023-04-30T00:24:59;12.63;;;9.20;;
6987;SDS011;3534;49.960;8.018;2023-04-30T00:27:25;14.30;;;10.30;;
6987;SDS011;3534;49.960;8.018;2023-04-30T00:29:52;9.67;;;8.40;;
6987;SDS011;3534;49.960;8.018;2023-04-30T00:32:19;10.60;;;8.70;;
6987;SDS011;3534;49.960;8.018;2023-04-30T00:34:46;12.37;;;8.87;;
6987;SDS011;3534;49.960;8.018;2023-04-30T00:37:14;14.17;;;8.97;;
6987;SDS011;3534;49.960;8.018;2023-04-30T00:39:40;10.63;;;9.13;;
6987;SDS011;3534;49.960;8.018;2023-04-30T00:42:07;12.30;;;9.37;;
6987;SDS011;3534;49.960;8.018;2023-04-30T00:44:34;11.23;;;7.60;;
6987;SDS011;3534;49.960;8.018;2023-04-30T00:47:00;11.70;;;8.37;;
6987;SDS011;3534;49.960;8.018;2023-04-30T00:49:27;10.33;;;8.30;;
6987;SDS011;3534;49.960;8.018;2023-04-30T00:51:53;14.13;;;9.37;;
6987;SDS011;3534;49.960;8.018;2023-04-30T00:54:21;9.53;;;8.53;;
6987;SDS011;3534;49.960;8.018;2023-04-30T00:56:49;11.97;;;8.97;;
6987;SDS011;3534;49.960;8.018;2023-04-30T00:59:16;10.90;;;9.67;;
6987;SDS011;3534;49.960;8.018;2023-04-30T01:01:42;12.77;;;9.27;;
6987;SDS011;3534;49.960;8.018;2023-04-30T01:04:09;11.20;;;9.50;;
6987;SDS011;3534;49.960;8.018;2023-04-30T01:06:36;14.23;;;9.40;;
6987;SDS011;3534;49.960;8.018;2023-04-30T01:09:03;11.80;;;9.07;;
6987;SDS011;3534;49.960;8.018;2023-04-30T01:11:35;11.23;;;8.87;;
6987;SDS011;3534;49.960;8.018;2023-04-30T01:14:16;12.27;;;10.10;;
6987;SDS011;3534;49.960;8.018;2023-04-30T01:16:50;14.47;;;10.10;;
6987;SDS011;3534;49.960;8.018;2023-04-30T01:19:35;13.93;;;9.67;;
6987;SDS011;3534;49.960;8.018;2023-04-30T01:22:06;15.53;;;9.63;;
6987;SDS011;3534;49.960;8.018;2023-04-30T01:24:42;11.67;;;10.13;;
6987;SDS011;3534;49.960;8.018;2023-04-30T01:27:27;10.33;;;9.20;;
6987;SDS011;3534;49.960;8.018;2023-04-30T01:30:02;12.20;;;8.97;;
6987;SDS011;3534;49.960;8.018;2023-04-30T01:32:30;11.27;;;8.90;;
6987;SDS011;3534;49.960;8.018;2023-04-30T01:34:56;12.17;;;9.90;;
6987;SDS011;3534;49.960;8.018;2023-04-30T01:37:23;12.10;;;9.67;;
6987;SDS011;3534;49.960;8.018;2023-04-30T01:40:00;13.40;;;9.90;;
6987;SDS011;3534;49.960;8.018;2023-04-30T01:42:40;13.87;;;9.80;;
6987;SDS011;3534;49.960;8.018;2023-04-30T01:45:20;11.37;;;9.40;;
6987;SDS011;3534;49.960;8.018;2023-04-30T01:48:01;13.53;;;10.00;;
6987;SDS011;3534;49.960;8.018;2023-04-30T01:50:36;14.37;;;10.00;;
6987;SDS011;3534;49.960;8.018;2023-04-30T01:53:08;13.07;;;10.37;;
6987;SDS011;3534;49.960;8.018;2023-04-30T01:55:40;14.27;;;10.17;;
6987;SDS011;3534;49.960;8.018;2023-04-30T01:58:09;15.83;;;9.73;;
6987;SDS011;3534;49.960;8.018;2023-04-30T02:00:39;17.53;;;11.43;;
6987;SDS011;3534;49.960;8.018;2023-04-30T02:03:06;15.57;;;11.43;;
6987;SDS011;3534;49.960;8.018;2023-04-30T02:05:32;15.03;;;11.80;;
6987;SDS011;3534;49.960;8.018;2023-04-30T02:07:59;13.90;;;12.20;;
6987;SDS011;3534;49.960;8.018;2023-04-30T02:10:26;16.47;;;11.80;;
6987;SDS011;3534;49.960;8.018;2023-04-30T02:12:54;16.00;;;11.93;;
6987;SDS011;3534;49.960;8.018;2023-04-30T02:15:21;16.37;;;10.90;;
6987;SDS011;3534;49.960;8.018;2023-04-30T02:17:49;15.83;;;11.43;;
6987;SDS011;3534;49.960;8.018;2023-04-30T02:20:15;15.37;;;11.20;;
6987;SDS011;3534;49.960;8.018;2023-04-30T02:22:42;12.63;;;11.13;;
6987;SDS011;3534;49.960;8.018;2023-04-30T02:25:09;12.80;;;11.03;;
6987;SDS011;3534;49.960;8.018;2023-04-30T02:27:36;15.50;;;12.07;;
6987;SDS011;3534;49.960;8.018;2023-04-30T02:30:04;15.57;;;11.27;;
6987;SDS011;3534;49.960;8.018;2023-04-30T02:32:31;13.23;;;10.33;;
6987;SDS011;3534;49.960;8.018;2023-04-30T02:34:59;16.20;;;11.53;;
6987;SDS011;3534;49.960;8.018;2023-04-30T02:37:26;15.27;;;11.23;;
6987;SDS011;3534;49.960;8.018;2023-04-30T02:39:53;14.77;;;11.07;;
6987;SDS011;3534;49.960;8.018;2023-04-30T02:42:19;21.90;;;12.57;;
6987;SDS011;3534;49.960;8.018;2023-04-30T02:44:46;17.47;;;12.50;;
6987;SDS011;3534;49.960;8.018;2023-04-30T02:47:12;13.90;;;11.70;;
6987;SDS011;3534;49.960;8.018;2023-04-30T02:49:39;15.60;;;11.30;;
6987;SDS011;3534;49.960;8.018;2023-04-30T02:52:07;14.67;;;10.57;;
6987;SDS011;3534;49.960;8.018;2023-04-30T02:54:34;16.60;;;12.10;;
6987;SDS011;3534;49.960;8.018;2023-04-30T02:57:01;15.10;;;11.93;;
6987;SDS011;3534;49.960;8.018;2023-04-30T02:59:27;14.67;;;11.47;;
6987;SDS011;3534;49.960;8.018;2023-04-30T03:01:54;17.40;;;10.63;;
6987;SDS011;3534;49.960;8.018;2023-04-30T03:04:21;13.63;;;10.10;;
6987;SDS011;3534;49.960;8.018;2023-04-30T03:06:47;13.90;;;10.10;;
6987;SDS011;3534;49.960;8.018;2023-04-30T03:09:16;11.17;;;9.97;;
6987;SDS011;3534;49.960;8.018;2023-04-30T03:11:42;12.87;;;9.97;;
6987;SDS011;3534;49.960;8.018;2023-04-30T03:14:09;15.57;;;11.00;;
6987;SDS011;3534;49.960;8.018;2023-04-30T03:16:35;12.73;;;10.30;;
6987;SDS011;3534;49.960;8.018;2023-04-30T03:19:02;17.50;;;10.33;;
6987;SDS011;3534;49.960;8.018;2023-04-30T03:21:29;25.70;;;11.13;;
6987;SDS011;3534;49.960;8.018;2023-04-30T03:23:56;14.77;;;9.80;;
6987;SDS011;3534;49.960;8.018;2023-04-30T03:26:24;14.23;;;11.67;;
6987;SDS011;3534;49.960;8.018;2023-04-30T03:28:51;11.80;;;10.33;;
6987;SDS011;3534;49.960;8.018;2023-04-30T03:31:19;13.00;;;10.37;;
6987;SDS011;3534;49.960;8.018;2023-04-30T03:33:45;11.80;;;10.60;;
6987;SDS011;3534;49.960;8.018;2023-04-30T03:36:12;11.50;;;10.20;;
6987;SDS011;3534;49.960;8.018;2023-04-30T03:38:39;14.57;;;10.60;;
6987;SDS011;3534;49.960;8.018;2023-04-30T03:41:06;11.83;;;9.63;;
6987;SDS011;3534;49.960;8.018;2023-04-30T03:43:34;14.80;;;10.40;;
6987;SDS011;3534;49.960;8.018;2023-04-30T03:46:01;15.13;;;11.00;;
6987;SDS011;3534;49.960;8.018;2023-04-30T03:48:28;16.73;;;10.83;;
6987;SDS011;3534;49.960;8.018;2023-04-30T03:50:55;15.83;;;11.00;;
6987;SDS011;3534;49.960;8.018;2023-04-30T03:53:21;12.67;;;9.60;;
6987;SDS011;3534;49.960;8.018;2023-04-30T03:55:49;15.80;;;10.53;;
6987;SDS011;3534;49.960;8.018;2023-04-30T03:58:16;13.30;;;10.57;;
6987;SDS011;3534;49.960;8.018;2023-04-30T04:00:44;14.70;;;9.90;;
6987;SDS011;3534;49.960;8.018;2023-04-30T04:03:12;12.57;;;11.20;;
6987;SDS011;3534;49.960;8.018;2023-04-30T04:05:39;13.90;;;10.00;;
6987;SDS011;3534;49.960;8.018;2023-04-30T04:08:05;14.37;;;10.40;;
6987;SDS011;3534;49.960;8.018;2023-04-30T04:10:32;13.07;;;10.07;;
6987;SDS011;3534;49.960;8.018;2023-04-30T04:12:59;13.33;;;10.53;;
6987;SDS011;3534;49.960;8.018;2023-04-30T04:15:26;16.50;;;10.97;;
6987;SDS011;3534;49.960;8.018;2023-04-30T04:17:54;14.40;;;10.17;;
6987;SDS011;3534;49.960;8.018;2023-04-30T04:20:21;12.20;;;10.13;;
6987;SDS011;3534;49.960;8.018;2023-04-30T04:22:47;12.97;;;10.47;;
6987;SDS011;3534;49.960;8.018;2023-04-30T04:25:14;13.67;;;10.57;;
6987;SDS011;3534;49.960;8.018;2023-04-30T04:27:42;14.77;;;9.90;;
6987;SDS011;3534;49.960;8.018;2023-04-30T04:30:09;14.13;;;10.10;;
6987;SDS011;3534;49.960;8.018;2023-04-30T04:32:36;16.83;;;10.53;;
6987;SDS011;3534;49.960;8.018;2023-04-30T04:35:12;13.80;;;10.80;;
6987;SDS011;3534;49.960;8.018;2023-04-30T04:37:39;15.37;;;10.57;;
6987;SDS011;3534;49.960;8.018;2023-04-30T04:40:06;12.93;;;9.90;;
6987;SDS011;3534;49.960;8.018;2023-04-30T04:42:34;13.23;;;10.43;;
6987;SDS011;3534;49.960;8.018;2023-04-30T04:45:01;17.30;;;12.67;;
6987;SDS011;3534;49.960;8.018;2023-04-30T04:47:28;16.40;;;11.27;;
6987;SDS011;3534;49.960;8.018;2023-04-30T04:49:55;15.73;;;12.47;;
6987;SDS011;3534;49.960;8.018;2023-04-30T04:52:23;14.77;;;10.80;;
6987;SDS011;3534;49.960;8.018;2023-04-30T04:54:50;14.13;;;11.80;;
6987;SDS011;3534;49.960;8.018;2023-04-30T04:57:16;14.40;;;10.93;;
6987;SDS011;3534;49.960;8.018;2023-04-30T04:59:43;13.93;;;11.03;;
6987;SDS011;3534;49.960;8.018;2023-04-30T05:02:10;18.70;;;12.07;;
6987;SDS011;3534;49.960;8.018;2023-04-30T05:04:36;13.57;;;11.60;;
6987;SDS011;3534;49.960;8.018;2023-04-30T05:07:03;13.10;;;10.93;;
6987;SDS011;3534;49.960;8.018;2023-04-30T05:09:31;18.30;;;12.17;;
6987;SDS011;3534;49.960;8.018;2023-04-30T05:11:58;14.30;;;11.07;;
6987;SDS011;3534;49.960;8.018;2023-04-30T05:14:26;17.30;;;12.07;;
6987;SDS011;3534;49.960;8.018;2023-04-30T05:16:53;14.57;;;11.23;;
6987;SDS011;3534;49.960;8.018;2023-04-30T05:19:19;17.00;;;10.97;;
6987;SDS011;3534;49.960;8.018;2023-04-30T05:21:46;16.00;;;10.20;;
6987;SDS011;3534;49.960;8.018;2023-04-30T05:24:13;15.23;;;11.67;;
6987;SDS011;3534;49.960;8.018;2023-04-30T05:26:41;16.47;;;10.97;;
6987;SDS011;3534;49.960;8.018;2023-04-30T05:29:07;11.10;;;9.70;;
6987;SDS011;3534;49.960;8.018;2023-04-30T05:31:35;15.30;;;10.50;;
6987;SDS011;3534;49.960;8.018;2023-04-30T05:34:02;15.90;;;10.83;;
6987;SDS011;3534;49.960;8.018;2023-04-30T05:36:29;13.70;;;8.60;;
6987;SDS011;3534;49.960;8.018;2023-04-30T05:38:56;14.43;;;9.40;;
6987;SDS011;3534;49.960;8.018;2023-04-30T05:41:22;13.87;;;9.27;;
6987;SDS011;3534;49.960;8.018;2023-04-30T05:43:50;16.10;;;10.30;;
6987;SDS011;3534;49.960;8.018;2023-04-30T05:46:17;12.90;;;10.40;;
6987;SDS011;3534;49.960;8.018;2023-04-30T05:48:44;14.37;;;10.97;;
6987;SDS011;3534;49.960;8.018;2023-04-30T05:51:10;12.70;;;9.93;;
6987;SDS011;3534;49.960;8.018;2023-04-30T05:53:37;11.80;;;9.80;;
6987;SDS011;3534;49.960;8.018;2023-04-30T05:56:04;13.83;;;9.50;;
6987;SDS011;3534;49.960;8.018;2023-04-30T05:58:31;11.97;;;8.83;;
6987;SDS011;3534;49.960;8.018;2023-04-30T06:00:59;10.20;;;7.87;;
6987;SDS011;3534;49.960;8.018;2023-04-30T06:03:26;13.07;;;9.23;;
6987;SDS011;3534;49.960;8.018;2023-04-30T06:05:52;18.70;;;9.00;;
6987;SDS011;3534;49.960;8.018;2023-04-30T06:08:19;12.87;;;8.90;;
6987;SDS011;3534;49.960;8.018;2023-04-30T06:10:46;12.90;;;8.60;;
6987;SDS011;3534;49.960;8.018;2023-04-30T06:13:13;11.27;;;8.07;;
6987;SDS011;3534;49.960;8.018;2023-04-30T06:15:40;8.80;;;7.63;;
6987;SDS011;3534;49.960;8.018;2023-04-30T06:18:08;10.20;;;8.17;;
6987;SDS011;3534;49.960;8.018;2023-04-30T06:20:36;10.60;;;7.10;;
6987;SDS011;3534;49.960;8.018;2023-04-30T06:23:03;10.30;;;7.40;;
6987;SDS011;3534;49.960;8.018;2023-04-30T06:25:30;9.67;;;7.17;;
6987;SDS011;3534;49.960;8.018;2023-04-30T06:27:56;7.73;;;6.60;;
6987;SDS011;3534;49.960;8.018;2023-04-30T06:30:23;9.93;;;6.97;;
6987;SDS011;3534;49.960;8.018;2023-04-30T06:32:50;9.13;;;6.57;;
6987;SDS011;3534;49.960;8.018;2023-04-30T06:35:18;7.67;;;6.57;;
6987;SDS011;3534;49.960;8.018;2023-04-30T06:37:44;8.63;;;5.80;;
6987;SDS011;3534;49.960;8.018;2023-04-30T06:40:11;12.50;;;5.70;;
6987;SDS011;3534;49.960;8.018;2023-04-30T06:42:38;7.70;;;5.47;;
6987;SDS011;3534;49.960;8.018;2023-04-30T06:45:05;8.70;;;5.70;;
6987;SDS011;3534;49.960;8.018;2023-04-30T06:47:32;7.27;;;6.00;;
6987;SDS011;3534;49.960;8.018;2023-04-30T06:50:00;8.97;;;5.73;;
6987;SDS011;3534;49.960;8.018;2023-04-30T06:52:28;7.80;;;4.77;;
6987;SDS011;3534;49.960;8.018;2023-04-30T06:54:55;11.00;;;5.60;;
6987;SDS011;3534;49.960;8.018;2023-04-30T06:57:22;6.83;;;4.83;;
6987;SDS011;3534;49.960;8.018;2023-04-30T06:59:49;7.73;;;5.47;;
6987;SDS011;3534;49.960;8.018;2023-04-30T07:02:16;8.57;;;5.30;;
6987;SDS011;3534;49.960;8.018;2023-04-30T07:04:43;9.70;;;5.07;;
6987;SDS011;3534;49.960;8.018;2023-04-30T07:07:09;6.27;;;4.90;;
6987;SDS011;3534;49.960;8.018;2023-04-30T07:09:37;5.83;;;5.20;;
6987;SDS011;3534;49.960;8.018;2023-04-30T07:12:04;8.03;;;6.00;;
6987;SDS011;3534;49.960;8.018;2023-04-30T07:14:31;8.20;;;5.30;;
6987;SDS011;3534;49.960;8.018;2023-04-30T07:16:57;10.00;;;4.90;;
6987;SDS011;3534;49.960;8.018;2023-04-30T07:19:24;4.73;;;4.23;;
6987;SDS011;3534;49.960;8.018;2023-04-30T07:21:51;4.63;;;4.23;;
6987;SDS011;3534;49.960;8.018;2023-04-30T07:24:18;11.30;;;5.20;;
6987;SDS011;3534;49.960;8.018;2023-04-30T07:26:46;8.90;;;5.17;;
6987;SDS011;3534;49.960;8.018;2023-04-30T07:29:12;7.70;;;4.17;;
6987;SDS011;3534;49.960;8.018;2023-04-30T07:31:39;5.43;;;4.10;;
6987;SDS011;3534;49.960;8.018;2023-04-30T07:34:06;6.87;;;4.50;;
6987;SDS011;3534;49.960;8.018;2023-04-30T07:36:33;5.07;;;4.10;;
6987;SDS011;3534;49.960;8.018;2023-04-30T07:38:59;8.50;;;4.03;;
6987;SDS011;3534;49.960;8.018;2023-04-30T07:41:26;6.50;;;3.50;;
6987;SDS011;3534;49.960;8.018;2023-04-30T07:43:54;3.83;;;3.53;;
6987;SDS011;3534;49.960;8.018;2023-04-30T07:46:21;5.80;;;4.23;;
6987;SDS011;3534;49.960;8.018;2023-04-30T07:48:49;6.93;;;4.50;;
6987;SDS011;3534;49.960;8.018;2023-04-30T07:51:16;5.00;;;4.17;;
6987;SDS011;3534;49.960;8.018;2023-04-30T07:53:43;5.37;;;4.40;;
6987;SDS011;3534;49.960;8.018;2023-04-30T07:56:09;5.10;;;3.80;;
6987;SDS011;3534;49.960;8.018;2023-04-30T07:58:36;4.80;;;4.00;;
6987;SDS011;3534;49.960;8.018;2023-04-30T08:01:04;6.70;;;4.40;;
6987;SDS011;3534;49.960;8.018;2023-04-30T08:03:31;8.80;;;3.60;;
6987;SDS011;3534;49.960;8.018;2023-04-30T08:05:58;5.27;;;3.53;;
6987;SDS011;3534;49.960;8.018;2023-04-30T08:08:24;4.50;;;3.33;;
6987;SDS011;3534;49.960;8.018;2023-04-30T08:10:51;4.43;;;3.50;;
6987;SDS011;3534;49.960;8.018;2023-04-30T08:13:17;5.90;;;3.60;;
6987;SDS011;3534;49.960;8.018;2023-04-30T08:15:45;7.70;;;3.33;;
6987;SDS011;3534;49.960;8.018;2023-04-30T08:18:13;7.57;;;3.93;;
6987;SDS011;3534;49.960;8.018;2023-04-30T08:20:40;5.37;;;3.90;;
6987;SDS011;3534;49.960;8.018;2023-04-30T08:23:06;3.90;;;3.00;;
6987;SDS011;3534;49.960;8.018;2023-04-30T08:25:33;6.33;;;3.53;;
6987;SDS011;3534;49.960;8.018;2023-04-30T08:28:00;7.10;;;3.90;;
6987;SDS011;3534;49.960;8.018;2023-04-30T08:30:27;6.07;;;3.40;;
6987;SDS011;3534;49.960;8.018;2023-04-30T08:32:54;4.30;;;2.73;;
6987;SDS011;3534;49.960;8.018;2023-04-30T08:35:22;6.83;;;3.00;;
6987;SDS011;3534;49.960;8.018;2023-04-30T08:37:48;6.07;;;3.20;;
6987;SDS011;3534;49.960;8.018;2023-04-30T08:40:15;4.07;;;2.53;;
6987;SDS011;3534;49.960;8.018;2023-04-30T08:42:43;3.30;;;3.00;;
6987;SDS011;3534;49.960;8.018;2023-04-30T08:45:15;3.33;;;2.87;;
6987;SDS011;3534;49.960;8.018;2023-04-30T08:47:43;3.37;;;2.87;;
6987;SDS011;3534;49.960;8.018;2023-04-30T08:50:10;3.73;;;2.50;;
6987;SDS011;3534;49.960;8.018;2023-04-30T08:52:38;3.97;;;2.53;;
6987;SDS011;3534;49.960;8.018;2023-04-30T08:55:07;3.00;;;2.70;;
6987;SDS011;3534;49.960;8.018;2023-04-30T08:57:35;3.00;;;2.30;;
6987;SDS011;3534;49.960;8.018;2023-04-30T09:00:02;4.60;;;2.60;;
6987;SDS011;3534;49.960;8.018;2023-04-30T09:02:31;3.20;;;2.50;;
6987;SDS011;3534;49.960;8.018;2023-04-30T09:04:57;3.90;;;2.50;;
6987;SDS011;3534;49.960;8.018;2023-04-30T09:07:24;3.37;;;2.10;;
6987;SDS011;3534;49.960;8.018;2023-04-30T09:09:54;4.67;;;2.80;;
6987;SDS011;3534;49.960;8.018;2023-04-30T09:12:22;4.03;;;2.53;;
6987;SDS011;3534;49.960;8.018;2023-04-30T09:14:58;2.50;;;2.30;;
6987;SDS011;3534;49.960;8.018;2023-04-30T09:17:26;2.27;;;2.07;;
6987;SDS011;3534;49.960;8.018;2023-04-30T09:19:53;3.40;;;2.50;;
6987;SDS011;3534;49.960;8.018;2023-04-30T09:22:21;3.20;;;2.00;;
6987;SDS011;3534;49.960;8.018;2023-04-30T09:24:49;2.43;;;2.23;;
6987;SDS011;3534;49.960;8.018;2023-04-30T09:27:19;2.17;;;1.97;;
6987;SDS011;3534;49.960;8.018;2023-04-30T09:29:46;2.70;;;2.30;;
6987;SDS011;3534;49.960;8.018;2023-04-30T09:32:13;2.00;;;1.90;;
6987;SDS011;3534;49.960;8.018;2023-04-30T09:34:40;2.60;;;2.13;;
6987;SDS011;3534;49.960;8.018;2023-04-30T09:37:07;3.83;;;1.80;;
6987;SDS011;3534;49.960;8.018;2023-04-30T09:39:44;2.57;;;2.07;;
6987;SDS011;3534;49.960;8.018;2023-04-30T09:42:12;1.87;;;1.70;;
6987;SDS011;3534;49.960;8.018;2023-04-30T09:44:41;1.43;;;1.33;;
6987;SDS011;3534;49.960;8.018;2023-04-30T09:47:11;1.90;;;1.80;;
6987;SDS011;3534;49.960;8.018;2023-04-30T09:49:40;2.33;;;2.03;;
6987;SDS011;3534;49.960;8.018;2023-04-30T09:52:08;3.03;;;1.80;;
6987;SDS011;3534;49.960;8.018;2023-04-30T09:54:35;1.90;;;1.80;;
6987;SDS011;3534;49.960;8.018;2023-04-30T09:57:02;4.40;;;1.63;;
6987;SDS011;3534;49.960;8.018;2023-04-30T09:59:29;5.43;;;1.33;;
6987;SDS011;3534;49.960;8.018;2023-04-30T10:01:58;1.17;;;1.07;;
6987;SDS011;3534;49.960;8.018;2023-04-30T10:04:26;3.40;;;1.60;;
6987;SDS011;3534;49.960;8.018;2023-04-30T10:06:56;1.93;;;1.73;;
6987;SDS011;3534;49.960;8.018;2023-04-30T10:09:24;1.87;;;1.60;;
6987;SDS011;3534;49.960;8.018;2023-04-30T10:11:53;1.80;;;1.47;;
6987;SDS011;3534;49.960;8.018;2023-04-30T10:14:22;1.73;;;1.60;;
6987;SDS011;3534;49.960;8.018;2023-04-30T10:16:53;1.50;;;1.13;;
6987;SDS011;3534;49.960;8.018;2023-04-30T10:19:24;3.13;;;1.70;;
6987;SDS011;3534;49.960;8.018;2023-04-30T10:21:54;2.40;;;1.90;;
6987;SDS011;3534;49.960;8.018;2023-04-30T10:24:21;2.20;;;1.27;;
6987;SDS011;3534;49.960;8.018;2023-04-30T10:26:48;1.93;;;1.50;;
6987;SDS011;3534;49.960;8.018;2023-04-30T10:29:15;1.73;;;1.63;;
6987;SDS011;3534;49.960;8.018;2023-04-30T10:31:44;4.00;;;1.37;;
6987;SDS011;3534;49.960;8.018;2023-04-30T10:34:13;1.83;;;1.73;;
6987;SDS011;3534;49.960;8.018;2023-04-30T10:36:49;3.00;;;2.20;;
6987;SDS011;3534;49.960;8.018;2023-04-30T10:39:21;2.13;;;1.40;;
6987;SDS011;3534;49.960;8.018;2023-04-30T10:41:52;2.90;;;1.63;;
6987;SDS011;3534;49.960;8.018;2023-04-30T10:44:26;1.50;;;1.40;;
6987;SDS011;3534;49.960;8.018;2023-04-30T10:46:57;3.37;;;1.57;;
6987;SDS011;3534;49.960;8.018;2023-04-30T10:49:24;3.60;;;1.80;;
6987;SDS011;3534;49.960;8.018;2023-04-30T10:51:52;2.00;;;1.50;;
6987;SDS011;3534;49.960;8.018;2023-04-30T10:54:22;1.90;;;1.50;;
6987;SDS011;3534;49.960;8.018;2023-04-30T10:56:52;1.67;;;1.57;;
6987;SDS011;3534;49.960;8.018;2023-04-30T10:59:20;2.03;;;1.73;;
6987;SDS011;3534;49.960;8.018;2023-04-30T11:01:55;1.83;;;1.43;;
6987;SDS011;3534;49.960;8.018;2023-04-30T11:04:25;2.77;;;2.37;;
6987;SDS011;3534;49.960;8.018;2023-04-30T11:07:08;2.33;;;1.73;;
6987;SDS011;3534;49.960;8.018;2023-04-30T11:09:39;2.90;;;1.40;;
6987;SDS011;3534;49.960;8.018;2023-04-30T11:12:11;9.23;;;1.80;;
6987;SDS011;3534;49.960;8.018;2023-04-30T11:14:39;2.17;;;1.97;;
6987;SDS011;3534;49.960;8.018;2023-04-30T11:17:08;2.00;;;1.80;;
6987;SDS011;3534;49.960;8.018;2023-04-30T11:19:40;2.90;;;2.17;;
6987;SDS011;3534;49.960;8.018;2023-04-30T11:22:16;1.77;;;1.67;;
6987;SDS011;3534;49.960;8.018;2023-04-30T11:24:59;9.93;;;2.10;;
6987;SDS011;3534;49.960;8.018;2023-04-30T11:27:30;4.57;;;2.20;;
6987;SDS011;3534;49.960;8.018;2023-04-30T11:29:57;2.60;;;2.00;;
6987;SDS011;3534;49.960;8.018;2023-04-30T11:32:25;4.13;;;2.00;;
6987;SDS011;3534;49.960;8.018;2023-04-30T11:34:56;5.27;;;1.73;;
6987;SDS011;3534;49.960;8.018;2023-04-30T11:37:31;2.43;;;1.77;;
6987;SDS011;3534;49.960;8.018;2023-04-30T11:39:59;1.87;;;1.70;;
6987;SDS011;3534;49.960;8.018;2023-04-30T11:42:28;2.93;;;1.67;;
6987;SDS011;3534;49.960;8.018;2023-04-30T11:45:02;2.40;;;1.83;;
6987;SDS011;3534;49.960;8.018;2023-04-30T11:47:39;1.60;;;1.50;;
6987;SDS011;3534;49.960;8.018;2023-04-30T11:50:07;8.87;;;1.90;;
6987;SDS011;3534;49.960;8.018;2023-04-30T11:52:35;2.93;;;1.53;;
6987;SDS011;3534;49.960;8.018;2023-04-30T11:55:06;2.20;;;2.00;;
6987;SDS011;3534;49.960;8.018;2023-04-30T11:57:41;2.07;;;1.90;;
6987;SDS011;3534;49.960;8.018;2023-04-30T12:00:09;1.90;;;1.43;;
6987;SDS011;3534;49.960;8.018;2023-04-30T12:02:37;1.93;;;1.77;;
6987;SDS011;3534;49.960;8.018;2023-04-30T12:05:04;3.23;;;1.87;;
6987;SDS011;3534;49.960;8.018;2023-04-30T12:07:38;6.40;;;2.33;;
6987;SDS011;3534;49.960;8.018;2023-04-30T12:10:10;3.53;;;2.13;;
6987;SDS011;3534;49.960;8.018;2023-04-30T12:12:37;1.90;;;1.77;;
6987;SDS011;3534;49.960;8.018;2023-04-30T12:15:09;1.60;;;1.50;;
6987;SDS011;3534;49.960;8.018;2023-04-30T12:17:37;1.80;;;1.70;;
6987;SDS011;3534;49.960;8.018;2023-04-30T12:20:04;2.50;;;1.67;;
6987;SDS011;3534;49.960;8.018;2023-04-30T12:22:31;3.73;;;1.87;;
6987;SDS011;3534;49.960;8.018;2023-04-30T12:25:00;2.33;;;2.00;;
6987;SDS011;3534;49.960;8.018;2023-04-30T12:27:32;1.20;;;1.10;;
6987;SDS011;3534;49.960;8.018;2023-04-30T12:30:00;1.70;;;1.60;;
6987;SDS011;3534;49.960;8.018;2023-04-30T12:32:28;1.70;;;1.60;;
6987;SDS011;3534;49.960;8.018;2023-04-30T12:37:27;1.53;;;1.43;;
6987;SDS011;3534;49.960;8.018;2023-04-30T12:39:54;2.50;;;2.13;;
6987;SDS011;3534;49.960;8.018;2023-04-30T12:42:22;1.73;;;1.60;;
6987;SDS011;3534;49.960;8.018;2023-04-30T12:44:50;2.77;;;1.77;;
6987;SDS011;3534;49.960;8.018;2023-04-30T12:47:16;1.60;;;1.50;;
6987;SDS011;3534;49.960;8.018;2023-04-30T12:49:43;2.80;;;1.50;;
6987;SDS011;3534;49.960;8.018;2023-04-30T12:52:11;1.37;;;1.27;;
6987;SDS011;3534;49.960;8.018;2023-04-30T12:54:39;2.47;;;1.33;;
6987;SDS011;3534;49.960;8.018;2023-04-30T12:57:07;2.20;;;1.40;;
6987;SDS011;3534;49.960;8.018;2023-04-30T12:59:38;1.63;;;1.27;;
6987;SDS011;3534;49.960;8.018;2023-04-30T13:02:21;1.60;;;1.50;;
6987;SDS011;3534;49.960;8.018;2023-04-30T13:04:49;2.00;;;1.20;;
6987;SDS011;3534;49.960;8.018;2023-04-30T13:07:16;4.40;;;2.00;;
6987;SDS011;3534;49.960;8.018;2023-04-30T13:09:43;3.60;;;1.30;;
6987;SDS011;3534;49.960;8.018;2023-04-30T13:12:10;2.10;;;1.30;;
6987;SDS011;3534;49.960;8.018;2023-04-30T13:14:38;5.17;;;1.30;;
6987;SDS011;3534;49.960;8.018;2023-04-30T13:17:04;1.47;;;1.37;;
6987;SDS011;3534;49.960;8.018;2023-04-30T13:19:33;2.00;;;1.10;;
6987;SDS011;3534;49.960;8.018;2023-04-30T13:22:00;4.10;;;1.00;;
6987;SDS011;3534;49.960;8.018;2023-04-30T13:24:27;1.43;;;1.13;;
6987;SDS011;3534;49.960;8.018;2023-04-30T13:26:55;1.77;;;1.30;;
6987;SDS011;3534;49.960;8.018;2023-04-30T13:29:23;4.03;;;1.30;;
6987;SDS011;3534;49.960;8.018;2023-04-30T13:31:51;1.37;;;0.80;;
6987;SDS011;3534;49.960;8.018;2023-04-30T13:34:18;1.77;;;1.30;;
6987;SDS011;3534;49.960;8.018;2023-04-30T13:36:44;1.00;;;0.90;;
6987;SDS011;3534;49.960;8.018;2023-04-30T13:39:11;1.00;;;0.80;;
6987;SDS011;3534;49.960;8.018;2023-04-30T13:41:38;5.13;;;1.17;;
6987;SDS011;3534;49.960;8.018;2023-04-30T13:44:04;1.00;;;0.90;;
6987;SDS011;3534;49.960;8.018;2023-04-30T13:46:31;1.40;;;1.20;;
6987;SDS011;3534;49.960;8.018;2023-04-30T13:48:59;1.20;;;1.10;;
6987;SDS011;3534;49.960;8.018;2023-04-30T13:51:26;1.03;;;0.90;;
6987;SDS011;3534;49.960;8.018;2023-04-30T13:53:53;1.37;;;1.00;;
6987;SDS011;3534;49.960;8.018;2023-04-30T13:56:20;3.80;;;0.97;;
6987;SDS011;3534;49.960;8.018;2023-04-30T13:58:47;2.30;;;1.30;;
6987;SDS011;3534;49.960;8.018;2023-04-30T14:01:13;1.20;;;0.70;;
6987;SDS011;3534;49.960;8.018;2023-04-30T14:03:40;1.57;;;0.77;;
6987;SDS011;3534;49.960;8.018;2023-04-30T14:06:08;1.87;;;1.10;;
6987;SDS011;3534;49.960;8.018;2023-04-30T14:08:35;1.33;;;1.13;;
6987;SDS011;3534;49.960;8.018;2023-04-30T14:11:01;2.87;;;0.90;;
6987;SDS011;3534;49.960;8.018;2023-04-30T14:13:28;1.03;;;0.93;;
6987;SDS011;3534;49.960;8.018;2023-04-30T14:15:55;1.10;;;0.90;;
6987;SDS011;3534;49.960;8.018;2023-04-30T14:18:21;1.20;;;0.90;;
6987;SDS011;3534;49.960;8.018;2023-04-30T14:20:49;1.10;;;0.63;;
6987;SDS011;3534;49.960;8.018;2023-04-30T14:23:37;0.93;;;0.80;;
6987;SDS011;3534;49.960;8.018;2023-04-30T14:26:05;0.80;;;0.60;;
6987;SDS011;3534;49.960;8.018;2023-04-30T14:28:32;1.10;;;0.98;;
6987;SDS011;3534;49.960;8.018;2023-04-30T14:30:59;1.92;;;0.80;;
6987;SDS011;3534;49.960;8.018;2023-04-30T14:33:25;1.73;;;0.90;;
6987;SDS011;3534;49.960;8.018;2023-04-30T14:35:52;2.20;;;1.00;;
6987;SDS011;3534;49.960;8.018;2023-04-30T14:38:19;1.95;;;1.17;;
6987;SDS011;3534;49.960;8.018;2023-04-30T14:40:47;0.90;;;0.60;;
6987;SDS011;3534;49.960;8.018;2023-04-30T14:43:13;0.90;;;0.80;;
6987;SDS011;3534;49.960;8.018;2023-04-30T14:45:40;1.30;;;0.90;;
6987;SDS011;3534;49.960;8.018;2023-04-30T14:48:08;1.10;;;0.80;;
6987;SDS011;3534;49.960;8.018;2023-04-30T14:50:34;1.77;;;0.90;;
6987;SDS011;3534;49.960;8.018;2023-04-30T14:53:01;1.57;;;1.20;;
6987;SDS011;3534;49.960;8.018;2023-04-30T14:55:29;1.53;;;0.80;;
6987;SDS011;3534;49.960;8.018;2023-04-30T14:57:57;4.10;;;0.87;;
6987;SDS011;3534;49.960;8.018;2023-04-30T15:00:24;1.02;;;0.88;;
6987;SDS011;3534;49.960;8.018;2023-04-30T15:02:51;1.15;;;0.93;;
6987;SDS011;3534;49.960;8.018;2023-04-30T15:05:18;1.02;;;0.93;;
6987;SDS011;3534;49.960;8.018;2023-04-30T15:07:45;0.80;;;0.52;;
6987;SDS011;3534;49.960;8.018;2023-04-30T15:10:11;0.70;;;0.60;;
6987;SDS011;3534;49.960;8.018;2023-04-30T15:12:38;1.40;;;0.68;;